createdAt,value
2022-11-05T00:00:17.384Z,1010.31
2022-11-05T00:01:17.426Z,1010.31
2022-11-05T00:02:17.377Z,1010.31
2022-11-05T00:03:17.462Z,1010.33
2022-11-05T00:04:17.373Z,1010.34
2022-11-05T00:05:17.376Z,1010.35
2022-11-05T00:06:17.359Z,1010.33
2022-11-05T00:07:17.353Z,1010.35
2022-11-05T00:08:17.368Z,1010.34
2022-11-05T00:09:17.350Z,1010.35
2022-11-05T00:10:17.368Z,1010.37
2022-11-05T00:11:18.446Z,1010.37
2022-11-05T00:12:17.349Z,1010.36
2022-11-05T00:13:17.338Z,1010.40
2022-11-05T00:14:17.338Z,1010.39
2022-11-05T00:15:17.340Z,1010.37
2022-11-05T00:16:17.331Z,1010.37
2022-11-05T00:17:17.327Z,1010.38
2022-11-05T00:18:17.329Z,1010.43
2022-11-05T00:19:17.329Z,1010.40
2022-11-05T00:20:17.327Z,1010.41
2022-11-05T00:21:17.318Z,1010.42
2022-11-05T00:22:17.318Z,1010.38
2022-11-05T00:23:17.314Z,1010.39
2022-11-05T00:24:21.782Z,1010.37
2022-11-05T00:25:17.316Z,1010.40
2022-11-05T00:26:17.320Z,1010.39
2022-11-05T00:27:17.311Z,1010.42
2022-11-05T00:28:17.306Z,1010.43
2022-11-05T00:29:17.296Z,1010.42
2022-11-05T00:30:17.295Z,1010.47
2022-11-05T00:31:17.296Z,1010.46
2022-11-05T00:32:17.291Z,1010.49
2022-11-05T00:33:17.286Z,1010.47
2022-11-05T00:34:17.285Z,1010.47
2022-11-05T00:35:17.280Z,1010.50
2022-11-05T00:36:17.279Z,1010.53
2022-11-05T00:37:17.276Z,1010.54
2022-11-05T00:38:17.274Z,1010.59
2022-11-05T00:39:17.272Z,1010.60
2022-11-05T00:40:17.263Z,1010.65
2022-11-05T00:41:17.270Z,1010.67
2022-11-05T00:42:17.280Z,1010.68
2022-11-05T00:43:17.265Z,1010.72
2022-11-05T00:44:17.254Z,1010.77
2022-11-05T00:45:17.252Z,1010.80
2022-11-05T00:46:17.242Z,1010.80
2022-11-05T00:47:17.248Z,1010.78
2022-11-05T00:48:17.246Z,1010.80
2022-11-05T00:49:17.237Z,1010.79
2022-11-05T00:50:17.237Z,1010.79
2022-11-05T00:51:17.229Z,1010.83
2022-11-05T00:52:17.241Z,1010.85
2022-11-05T00:53:17.228Z,1010.85
2022-11-05T00:54:17.235Z,1010.85
2022-11-05T00:55:17.222Z,1010.89
2022-11-05T00:56:17.226Z,1010.90
2022-11-05T00:57:17.218Z,1010.91
2022-11-05T00:58:17.245Z,1010.93
2022-11-05T00:59:17.234Z,1010.96
2022-11-05T01:00:17.215Z,1010.98
2022-11-05T01:01:17.393Z,1011.03
2022-11-05T01:02:17.427Z,1011.05
2022-11-05T01:03:17.197Z,1011.05
2022-11-05T01:04:17.202Z,1011.10
2022-11-05T01:05:17.194Z,1011.03
2022-11-05T01:06:17.197Z,1011.04
2022-11-05T01:07:17.211Z,1011.07
2022-11-05T01:08:17.186Z,1011.04
2022-11-05T01:09:17.190Z,1011.06
2022-11-05T01:10:17.185Z,1011.07
2022-11-05T01:11:17.183Z,1011.05
2022-11-05T01:12:17.179Z,1011.07
2022-11-05T01:13:17.512Z,1011.06
2022-11-05T01:14:17.194Z,1011.04
2022-11-05T01:15:17.174Z,1011.03
2022-11-05T01:16:17.171Z,1011.04
2022-11-05T01:17:17.154Z,1011.04
2022-11-05T01:18:17.156Z,1011.08
2022-11-05T01:19:17.166Z,1011.08
2022-11-05T01:20:17.149Z,1011.14
2022-11-05T01:21:17.162Z,1011.09
2022-11-05T01:22:17.148Z,1011.10
2022-11-05T01:23:17.412Z,1011.09
2022-11-05T01:24:17.133Z,1011.13
2022-11-05T01:25:17.141Z,1011.13
2022-11-05T01:26:17.138Z,1011.12
2022-11-05T01:27:17.128Z,1011.12
2022-11-05T01:28:17.250Z,1011.13
2022-11-05T01:29:17.133Z,1011.11
2022-11-05T01:30:17.265Z,1011.13
2022-11-05T01:31:17.121Z,1011.16
2022-11-05T01:32:17.117Z,1011.17
2022-11-05T01:33:17.120Z,1011.21
2022-11-05T01:34:17.113Z,1011.22
2022-11-05T01:35:17.101Z,1011.19
2022-11-05T01:36:17.096Z,1011.23
2022-11-05T01:37:17.101Z,1011.26
2022-11-05T01:38:17.100Z,1011.27
2022-11-05T01:39:17.094Z,1011.30
2022-11-05T01:40:17.097Z,1011.34
2022-11-05T01:41:17.107Z,1011.35
2022-11-05T01:42:17.095Z,1011.34
2022-11-05T01:43:17.083Z,1011.36
2022-11-05T01:44:17.089Z,1011.35
2022-11-05T01:45:17.076Z,1011.37
2022-11-05T01:46:17.089Z,1011.37
2022-11-05T01:47:17.077Z,1011.41
2022-11-05T01:48:17.075Z,1011.41
2022-11-05T01:49:17.073Z,1011.46
2022-11-05T01:50:17.067Z,1011.43
2022-11-05T01:51:17.065Z,1011.41
2022-11-05T01:52:17.052Z,1011.43
2022-11-05T01:53:17.063Z,1011.37
2022-11-05T01:54:17.060Z,1011.39
2022-11-05T01:55:17.048Z,1011.42
2022-11-05T01:56:17.048Z,1011.41
2022-11-05T01:57:17.042Z,1011.40
2022-11-05T01:58:17.036Z,1011.43
2022-11-05T01:59:17.030Z,1011.41
2022-11-05T02:00:17.047Z,1011.43
2022-11-05T02:01:17.143Z,1011.40
2022-11-05T02:02:17.195Z,1011.39
2022-11-05T02:03:17.027Z,1011.37
2022-11-05T02:04:17.014Z,1011.40
2022-11-05T02:05:17.012Z,1011.39
2022-11-05T02:06:17.034Z,1011.40
2022-11-05T02:07:17.011Z,1011.39
2022-11-05T02:08:17.018Z,1011.42
2022-11-05T02:09:17.006Z,1011.44
2022-11-05T02:10:17.006Z,1011.49
2022-11-05T02:11:17.002Z,1011.51
2022-11-05T02:12:16.998Z,1011.51
2022-11-05T02:13:16.999Z,1011.45
2022-11-05T02:14:16.996Z,1011.48
2022-11-05T02:15:16.987Z,1011.53
2022-11-05T02:16:16.989Z,1011.50
2022-11-05T02:17:16.978Z,1011.52
2022-11-05T02:18:17.002Z,1011.51
2022-11-05T02:19:16.975Z,1011.53
2022-11-05T02:20:16.977Z,1011.52
2022-11-05T02:21:16.975Z,1011.49
2022-11-05T02:22:16.962Z,1011.50
2022-11-05T02:23:16.967Z,1011.51
2022-11-05T02:24:16.962Z,1011.56
2022-11-05T02:25:16.956Z,1011.58
2022-11-05T02:26:16.960Z,1011.57
2022-11-05T02:27:16.966Z,1011.55
2022-11-05T02:28:16.958Z,1011.58
2022-11-05T02:29:16.961Z,1011.59
2022-11-05T02:30:16.944Z,1011.58
2022-11-05T02:31:16.940Z,1011.55
2022-11-05T02:32:16.931Z,1011.58
2022-11-05T02:33:16.939Z,1011.57
2022-11-05T02:34:16.943Z,1011.59
2022-11-05T02:35:16.932Z,1011.58
2022-11-05T02:36:16.925Z,1011.60
2022-11-05T02:37:16.924Z,1011.58
2022-11-05T02:38:16.914Z,1011.63
2022-11-05T02:39:16.919Z,1011.60
2022-11-05T02:40:16.930Z,1011.61
2022-11-05T02:41:16.906Z,1011.64
2022-11-05T02:42:16.901Z,1011.69
2022-11-05T02:43:16.912Z,1011.66
2022-11-05T02:44:16.908Z,1011.68
2022-11-05T02:45:16.902Z,1011.70
2022-11-05T02:46:16.887Z,1011.72
2022-11-05T02:47:18.324Z,1011.71
2022-11-05T02:48:16.889Z,1011.74
2022-11-05T02:49:16.881Z,1011.73
2022-11-05T02:50:16.900Z,1011.73
2022-11-05T02:51:16.884Z,1011.73
2022-11-05T02:52:16.876Z,1011.71
2022-11-05T02:53:16.874Z,1011.70
2022-11-05T02:54:16.868Z,1011.71
2022-11-05T02:55:16.871Z,1011.72
2022-11-05T02:56:16.865Z,1011.72
2022-11-05T02:57:16.909Z,1011.71
2022-11-05T02:58:16.858Z,1011.69
2022-11-05T02:59:16.882Z,1011.69
2022-11-05T03:00:16.860Z,1011.64
2022-11-05T03:01:17.035Z,1011.67
2022-11-05T03:02:17.001Z,1011.69
2022-11-05T03:03:16.842Z,1011.68
2022-11-05T03:04:16.844Z,1011.71
2022-11-05T03:05:16.838Z,1011.72
2022-11-05T03:06:16.864Z,1011.67
2022-11-05T03:07:16.837Z,1011.67
2022-11-05T03:08:16.833Z,1011.66
2022-11-05T03:09:16.831Z,1011.67
2022-11-05T03:10:16.815Z,1011.71
2022-11-05T03:11:16.825Z,1011.73
2022-11-05T03:12:16.816Z,1011.73
2022-11-05T03:13:16.812Z,1011.75
2022-11-05T03:14:16.805Z,1011.74
2022-11-05T03:15:16.810Z,1011.72
2022-11-05T03:16:16.800Z,1011.77
2022-11-05T03:17:16.810Z,1011.80
2022-11-05T03:18:16.798Z,1011.82
2022-11-05T03:19:16.788Z,1011.80
2022-11-05T03:20:16.795Z,1011.78
2022-11-05T03:21:16.791Z,1011.81
2022-11-05T03:22:16.801Z,1011.78
2022-11-05T03:23:16.777Z,1011.78
2022-11-05T03:24:16.785Z,1011.81
2022-11-05T03:25:16.779Z,1011.72
2022-11-05T03:26:16.777Z,1011.77
2022-11-05T03:27:16.778Z,1011.73
2022-11-05T03:28:16.775Z,1011.71
2022-11-05T03:29:16.765Z,1011.77
2022-11-05T03:30:16.770Z,1011.80
2022-11-05T03:31:16.784Z,1011.78
2022-11-05T03:32:16.755Z,1011.73
2022-11-05T03:33:16.756Z,1011.75
2022-11-05T03:34:16.749Z,1011.73
2022-11-05T03:35:16.744Z,1011.72
2022-11-05T03:36:16.810Z,1011.73
2022-11-05T03:37:16.742Z,1011.78
2022-11-05T03:38:16.768Z,1011.72
2022-11-05T03:39:16.741Z,1011.73
2022-11-05T03:40:16.733Z,1011.74
2022-11-05T03:41:16.784Z,1011.76
2022-11-05T03:42:16.729Z,1011.80
2022-11-05T03:43:16.725Z,1011.79
2022-11-05T03:44:16.719Z,1011.86
2022-11-05T03:45:16.715Z,1011.87
2022-11-05T03:46:16.720Z,1011.91
2022-11-05T03:47:16.705Z,1011.91
2022-11-05T03:48:16.809Z,1011.90
2022-11-05T03:49:16.701Z,1011.92
2022-11-05T03:50:16.705Z,1011.97
2022-11-05T03:51:16.706Z,1011.93
2022-11-05T03:52:16.696Z,1011.96
2022-11-05T03:53:16.704Z,1011.97
2022-11-05T03:54:16.791Z,1011.96
2022-11-05T03:55:16.682Z,1011.95
2022-11-05T03:56:16.677Z,1011.99
2022-11-05T03:57:16.689Z,1011.95
2022-11-05T03:58:16.677Z,1011.99
2022-11-05T03:59:16.672Z,1012.02
2022-11-05T04:00:16.665Z,1011.98
2022-11-05T04:01:16.792Z,1012.03
2022-11-05T04:02:16.796Z,1012.04
2022-11-05T04:03:16.659Z,1012.05
2022-11-05T04:04:16.659Z,1012.09
2022-11-05T04:05:16.654Z,1012.05
2022-11-05T04:06:16.652Z,1012.09
2022-11-05T04:07:16.654Z,1012.11
2022-11-05T04:08:16.640Z,1012.10
2022-11-05T04:09:16.635Z,1012.07
2022-11-05T04:10:16.740Z,1012.11
2022-11-05T04:11:16.636Z,1012.09
2022-11-05T04:12:16.635Z,1012.14
2022-11-05T04:13:16.636Z,1012.15
2022-11-05T04:14:16.628Z,1012.21
2022-11-05T04:15:16.623Z,1012.18
2022-11-05T04:16:16.619Z,1012.20
2022-11-05T04:17:16.621Z,1012.24
2022-11-05T04:18:16.607Z,1012.26
2022-11-05T04:19:16.603Z,1012.22
2022-11-05T04:20:16.604Z,1012.27
2022-11-05T04:21:16.598Z,1012.25
2022-11-05T04:22:16.599Z,1012.26
2022-11-05T04:23:16.605Z,1012.23
2022-11-05T04:24:16.608Z,1012.26
2022-11-05T04:25:16.636Z,1012.29
2022-11-05T04:26:16.605Z,1012.23
2022-11-05T04:27:16.590Z,1012.24
2022-11-05T04:28:16.576Z,1012.26
2022-11-05T04:29:16.579Z,1012.28
2022-11-05T04:30:16.579Z,1012.31
2022-11-05T04:31:16.573Z,1012.29
2022-11-05T04:32:16.570Z,1012.31
2022-11-05T04:33:16.565Z,1012.32
2022-11-05T04:34:16.562Z,1012.32
2022-11-05T04:35:16.555Z,1012.30
2022-11-05T04:36:16.558Z,1012.30
2022-11-05T04:37:16.556Z,1012.29
2022-11-05T04:38:16.555Z,1012.33
2022-11-05T04:39:16.547Z,1012.36
2022-11-05T04:40:16.546Z,1012.36
2022-11-05T04:41:16.541Z,1012.35
2022-11-05T04:42:16.554Z,1012.38
2022-11-05T04:43:17.031Z,1012.35
2022-11-05T04:44:16.546Z,1012.34
2022-11-05T04:45:16.521Z,1012.39
2022-11-05T04:46:16.523Z,1012.37
2022-11-05T04:47:16.534Z,1012.35
2022-11-05T04:48:16.519Z,1012.34
2022-11-05T04:49:16.519Z,1012.31
2022-11-05T04:50:16.514Z,1012.34
2022-11-05T04:51:16.515Z,1012.34
2022-11-05T04:52:16.505Z,1012.34
2022-11-05T04:53:16.501Z,1012.32
2022-11-05T04:54:16.500Z,1012.28
2022-11-05T04:55:16.502Z,1012.27
2022-11-05T04:56:16.495Z,1012.24
2022-11-05T04:57:16.484Z,1012.25
2022-11-05T04:58:16.517Z,1012.22
2022-11-05T04:59:16.490Z,1012.26
2022-11-05T05:00:16.488Z,1012.23
2022-11-05T05:01:16.599Z,1012.21
2022-11-05T05:02:16.547Z,1012.25
2022-11-05T05:03:16.477Z,1012.26
2022-11-05T05:04:16.478Z,1012.24
2022-11-05T05:05:16.465Z,1012.27
2022-11-05T05:06:16.460Z,1012.26
2022-11-05T05:07:16.454Z,1012.26
2022-11-05T05:08:16.453Z,1012.25
2022-11-05T05:09:16.455Z,1012.26
2022-11-05T05:10:16.460Z,1012.28
2022-11-05T05:11:16.460Z,1012.32
2022-11-05T05:12:16.444Z,1012.31
2022-11-05T05:13:16.444Z,1012.29
2022-11-05T05:14:16.459Z,1012.34
2022-11-05T05:15:16.432Z,1012.37
2022-11-05T05:16:16.424Z,1012.33
2022-11-05T05:17:16.423Z,1012.39
2022-11-05T05:18:16.428Z,1012.36
2022-11-05T05:19:16.426Z,1012.38
2022-11-05T05:20:16.415Z,1012.38
2022-11-05T05:21:16.427Z,1012.44
2022-11-05T05:22:16.408Z,1012.42
2022-11-05T05:23:16.417Z,1012.43
2022-11-05T05:24:16.410Z,1012.45
2022-11-05T05:25:16.397Z,1012.45
2022-11-05T05:26:16.393Z,1012.43
2022-11-05T05:27:16.504Z,1012.49
2022-11-05T05:28:16.394Z,1012.48
2022-11-05T05:29:16.393Z,1012.49
2022-11-05T05:30:16.416Z,1012.49
2022-11-05T05:31:16.385Z,1012.51
2022-11-05T05:32:16.380Z,1012.53
2022-11-05T05:33:16.380Z,1012.55
2022-11-05T05:34:16.373Z,1012.56
2022-11-05T05:35:16.364Z,1012.58
2022-11-05T05:36:16.362Z,1012.56
2022-11-05T05:37:16.366Z,1012.58
2022-11-05T05:38:16.358Z,1012.57
2022-11-05T05:39:16.361Z,1012.57
2022-11-05T05:40:16.350Z,1012.52
2022-11-05T05:41:16.357Z,1012.54
2022-11-05T05:42:16.352Z,1012.55
2022-11-05T05:43:16.355Z,1012.56
2022-11-05T05:44:16.344Z,1012.58
2022-11-05T05:45:16.338Z,1012.56
2022-11-05T05:46:16.352Z,1012.58
2022-11-05T05:47:16.337Z,1012.55
2022-11-05T05:48:16.332Z,1012.57
2022-11-05T05:49:16.323Z,1012.60
2022-11-05T05:50:16.322Z,1012.61
2022-11-05T05:51:16.329Z,1012.63
2022-11-05T05:52:16.317Z,1012.62
2022-11-05T05:53:16.307Z,1012.63
2022-11-05T05:54:16.315Z,1012.66
2022-11-05T05:55:16.319Z,1012.67
2022-11-05T05:56:16.305Z,1012.67
2022-11-05T05:57:16.295Z,1012.68
2022-11-05T05:58:16.291Z,1012.73
2022-11-05T05:59:16.289Z,1012.74
2022-11-05T06:00:16.288Z,1012.75
2022-11-05T06:01:19.248Z,1012.74
2022-11-05T06:02:16.502Z,1012.76
2022-11-05T06:03:16.285Z,1012.75
2022-11-05T06:04:16.284Z,1012.79
2022-11-05T06:05:16.284Z,1012.83
2022-11-05T06:06:16.283Z,1012.80
2022-11-05T06:07:16.261Z,1012.85
2022-11-05T06:08:16.263Z,1012.81
2022-11-05T06:09:16.267Z,1012.84
2022-11-05T06:10:16.298Z,1012.85
2022-11-05T06:11:16.257Z,1012.86
2022-11-05T06:12:16.282Z,1012.89
2022-11-05T06:13:16.243Z,1012.91
2022-11-05T06:14:16.243Z,1012.94
2022-11-05T06:15:16.246Z,1012.91
2022-11-05T06:16:16.235Z,1012.94
2022-11-05T06:17:16.232Z,1012.93
2022-11-05T06:18:16.247Z,1012.99
2022-11-05T06:19:16.239Z,1012.93
2022-11-05T06:20:16.226Z,1012.96
2022-11-05T06:21:16.219Z,1012.96
2022-11-05T06:22:16.226Z,1012.96
2022-11-05T06:23:16.223Z,1012.97
2022-11-05T06:24:16.217Z,1012.98
2022-11-05T06:25:16.213Z,1012.97
2022-11-05T06:26:16.214Z,1012.99
2022-11-05T06:27:16.205Z,1013.02
2022-11-05T06:28:16.202Z,1013.00
2022-11-05T06:29:16.211Z,1013.02
2022-11-05T06:30:16.191Z,1013.00
2022-11-05T06:31:16.186Z,1012.99
2022-11-05T06:32:16.192Z,1013.01
2022-11-05T06:33:16.185Z,1013.00
2022-11-05T06:34:16.197Z,1012.98
2022-11-05T06:35:16.180Z,1013.02
2022-11-05T06:36:16.172Z,1012.98
2022-11-05T06:37:16.165Z,1013.01
2022-11-05T06:38:16.174Z,1013.03
2022-11-05T06:39:16.166Z,1013.03
2022-11-05T06:40:16.157Z,1013.06
2022-11-05T06:41:16.152Z,1013.06
2022-11-05T06:42:19.037Z,1013.08
2022-11-05T06:43:16.151Z,1013.10
2022-11-05T06:44:16.143Z,1013.13
2022-11-05T06:45:16.148Z,1013.13
2022-11-05T06:46:16.142Z,1013.12
2022-11-05T06:47:16.145Z,1013.11
2022-11-05T06:48:16.131Z,1013.15
2022-11-05T06:49:16.134Z,1013.16
2022-11-05T06:50:16.152Z,1013.19
2022-11-05T06:51:16.121Z,1013.21
2022-11-05T06:52:16.128Z,1013.17
2022-11-05T06:53:16.113Z,1013.19
2022-11-05T06:54:16.122Z,1013.23
2022-11-05T06:55:16.113Z,1013.22
2022-11-05T06:56:16.111Z,1013.24
2022-11-05T06:57:16.107Z,1013.23
2022-11-05T06:58:16.097Z,1013.27
2022-11-05T06:59:16.111Z,1013.26
2022-11-05T07:00:16.103Z,1013.30
2022-11-05T07:01:16.140Z,1013.34
2022-11-05T07:02:16.185Z,1013.36
2022-11-05T07:03:16.094Z,1013.36
2022-11-05T07:04:16.086Z,1013.40
2022-11-05T07:05:16.081Z,1013.42
2022-11-05T07:06:16.110Z,1013.41
2022-11-05T07:07:16.080Z,1013.45
2022-11-05T07:08:16.068Z,1013.47
2022-11-05T07:09:16.069Z,1013.49
2022-11-05T07:10:16.061Z,1013.48
2022-11-05T07:11:16.067Z,1013.47
2022-11-05T07:12:16.065Z,1013.44
2022-11-05T07:13:16.502Z,1013.49
2022-11-05T07:14:16.050Z,1013.55
2022-11-05T07:15:16.049Z,1013.51
2022-11-05T07:16:16.042Z,1013.53
2022-11-05T07:17:16.042Z,1013.54
2022-11-05T07:18:16.045Z,1013.55
2022-11-05T07:19:16.035Z,1013.55
2022-11-05T07:20:16.027Z,1013.55
2022-11-05T07:21:16.028Z,1013.55
2022-11-05T07:22:16.065Z,1013.55
2022-11-05T07:23:16.040Z,1013.56
2022-11-05T07:24:16.028Z,1013.60
2022-11-05T07:25:16.007Z,1013.60
2022-11-05T07:26:16.015Z,1013.60
2022-11-05T07:27:16.012Z,1013.64
2022-11-05T07:28:16.011Z,1013.66
2022-11-05T07:29:16.103Z,1013.60
2022-11-05T07:30:16.011Z,1013.64
2022-11-05T07:31:15.994Z,1013.60
2022-11-05T07:32:15.998Z,1013.61
2022-11-05T07:33:15.997Z,1013.57
2022-11-05T07:34:15.991Z,1013.58
2022-11-05T07:35:15.984Z,1013.57
2022-11-05T07:36:15.985Z,1013.56
2022-11-05T07:37:15.970Z,1013.65
2022-11-05T07:38:16.001Z,1013.64
2022-11-05T07:39:15.976Z,1013.70
2022-11-05T07:40:15.969Z,1013.65
2022-11-05T07:41:15.968Z,1013.64
2022-11-05T07:42:15.966Z,1013.63
2022-11-05T07:43:15.953Z,1013.65
2022-11-05T07:44:15.964Z,1013.71
2022-11-05T07:45:15.959Z,1013.72
2022-11-05T07:46:15.950Z,1013.76
2022-11-05T07:47:15.943Z,1013.75
2022-11-05T07:48:15.951Z,1013.75
2022-11-05T07:49:15.931Z,1013.76
2022-11-05T07:50:15.939Z,1013.77
2022-11-05T07:51:15.938Z,1013.74
2022-11-05T07:52:15.940Z,1013.72
2022-11-05T07:53:15.988Z,1013.75
2022-11-05T07:54:15.943Z,1013.76
2022-11-05T07:55:15.915Z,1013.80
2022-11-05T07:56:15.918Z,1013.78
2022-11-05T07:57:15.914Z,1013.78
2022-11-05T07:58:15.910Z,1013.82
2022-11-05T07:59:15.909Z,1013.86
2022-11-05T08:00:15.902Z,1013.88
2022-11-05T08:01:16.030Z,1013.83
2022-11-05T08:02:16.044Z,1013.87
2022-11-05T08:03:16.329Z,1013.85
2022-11-05T08:04:15.895Z,1013.86
2022-11-05T08:05:15.886Z,1013.90
2022-11-05T08:06:15.886Z,1013.93
2022-11-05T08:07:15.882Z,1013.92
2022-11-05T08:08:15.884Z,1013.91
2022-11-05T08:09:15.869Z,1013.92
2022-11-05T08:10:15.887Z,1013.96
2022-11-05T08:11:15.866Z,1013.99
2022-11-05T08:12:15.864Z,1013.95
2022-11-05T08:13:16.212Z,1013.93
2022-11-05T08:14:15.865Z,1013.95
2022-11-05T08:15:15.848Z,1013.96
2022-11-05T08:16:15.858Z,1013.99
2022-11-05T08:17:18.406Z,1014.01
2022-11-05T08:18:15.866Z,1014.00
2022-11-05T08:19:15.840Z,1014.02
2022-11-05T08:20:15.965Z,1013.97
2022-11-05T08:21:15.836Z,1014.04
2022-11-05T08:22:15.838Z,1014.05
2022-11-05T08:23:16.169Z,1014.06
2022-11-05T08:24:15.829Z,1014.02
2022-11-05T08:25:15.824Z,1014.03
2022-11-05T08:26:15.839Z,1014.01
2022-11-05T08:27:15.823Z,1014.02
2022-11-05T08:28:15.819Z,1014.03
2022-11-05T08:29:15.819Z,1014.04
2022-11-05T08:30:15.825Z,1014.07
2022-11-05T08:31:15.823Z,1014.03
2022-11-05T08:32:15.821Z,1014.09
2022-11-05T08:33:16.222Z,1014.06
2022-11-05T08:34:15.799Z,1014.10
2022-11-05T08:35:15.795Z,1014.09
2022-11-05T08:36:15.793Z,1014.08
2022-11-05T08:37:15.788Z,1014.05
2022-11-05T08:38:15.792Z,1014.04
2022-11-05T08:39:17.069Z,1014.07
2022-11-05T08:40:15.790Z,1014.13
2022-11-05T08:41:15.777Z,1014.12
2022-11-05T08:42:15.797Z,1014.14
2022-11-05T08:43:15.770Z,1014.12
2022-11-05T08:44:15.780Z,1014.12
2022-11-05T08:45:15.781Z,1014.15
2022-11-05T08:46:15.766Z,1014.13
2022-11-05T08:47:15.765Z,1014.13
2022-11-05T08:48:15.764Z,1014.12
2022-11-05T08:49:15.775Z,1014.18
2022-11-05T08:50:15.757Z,1014.14
2022-11-05T08:51:16.050Z,1014.14
2022-11-05T08:52:15.744Z,1014.12
2022-11-05T08:53:16.125Z,1014.13
2022-11-05T08:54:15.748Z,1014.13
2022-11-05T08:55:15.743Z,1014.14
2022-11-05T08:56:15.753Z,1014.14
2022-11-05T08:57:15.744Z,1014.15
2022-11-05T08:58:15.756Z,1014.14
2022-11-05T08:59:15.764Z,1014.15
2022-11-05T09:00:15.767Z,1014.15
2022-11-05T09:01:15.798Z,1014.13
2022-11-05T09:02:15.875Z,1014.15
2022-11-05T09:03:16.019Z,1014.20
2022-11-05T09:04:15.727Z,1014.17
2022-11-05T09:05:15.720Z,1014.21
2022-11-05T09:06:15.722Z,1014.21
2022-11-05T09:07:15.710Z,1014.18
2022-11-05T09:08:15.717Z,1014.20
2022-11-05T09:09:15.711Z,1014.15
2022-11-05T09:10:15.748Z,1014.24
2022-11-05T09:11:15.706Z,1014.24
2022-11-05T09:12:15.707Z,1014.23
2022-11-05T09:13:19.445Z,1014.24
2022-11-05T09:14:15.731Z,1014.19
2022-11-05T09:15:15.692Z,1014.22
2022-11-05T09:16:15.693Z,1014.21
2022-11-05T09:17:15.692Z,1014.27
2022-11-05T09:18:15.697Z,1014.24
2022-11-05T09:19:15.717Z,1014.26
2022-11-05T09:20:15.690Z,1014.22
2022-11-05T09:21:15.684Z,1014.24
2022-11-05T09:22:15.673Z,1014.25
2022-11-05T09:23:15.760Z,1014.24
2022-11-05T09:24:15.675Z,1014.24
2022-11-05T09:25:15.669Z,1014.23
2022-11-05T09:26:15.673Z,1014.28
2022-11-05T09:27:15.670Z,1014.23
2022-11-05T09:28:17.100Z,1014.22
2022-11-05T09:29:15.697Z,1014.23
2022-11-05T09:30:15.778Z,1014.22
2022-11-05T09:31:15.655Z,1014.21
2022-11-05T09:32:15.655Z,1014.17
2022-11-05T09:33:15.659Z,1014.20
2022-11-05T09:34:15.651Z,1014.15
2022-11-05T09:35:15.649Z,1014.22
2022-11-05T09:36:15.651Z,1014.21
2022-11-05T09:37:15.656Z,1014.24
2022-11-05T09:38:15.645Z,1014.22
2022-11-05T09:39:15.642Z,1014.26
2022-11-05T09:40:15.637Z,1014.20
2022-11-05T09:41:15.640Z,1014.19
2022-11-05T09:42:15.643Z,1014.28
2022-11-05T09:43:15.624Z,1014.33
2022-11-05T09:44:15.628Z,1014.26
2022-11-05T09:45:15.635Z,1014.25
2022-11-05T09:46:15.639Z,1014.27
2022-11-05T09:47:15.640Z,1014.29
2022-11-05T09:48:15.610Z,1014.29
2022-11-05T09:49:15.608Z,1014.34
2022-11-05T09:50:15.605Z,1014.34
2022-11-05T09:51:20.727Z,1014.33
2022-11-05T09:52:15.604Z,1014.31
2022-11-05T09:53:15.599Z,1014.33
2022-11-05T09:54:15.609Z,1014.34
2022-11-05T09:55:15.593Z,1014.34
2022-11-05T09:56:15.592Z,1014.31
2022-11-05T09:57:15.596Z,1014.31
2022-11-05T09:58:15.587Z,1014.33
2022-11-05T09:59:15.583Z,1014.35
2022-11-05T10:00:15.589Z,1014.36
2022-11-05T10:01:15.754Z,1014.38
2022-11-05T10:02:15.692Z,1014.35
2022-11-05T10:03:15.579Z,1014.35
2022-11-05T10:04:15.579Z,1014.39
2022-11-05T10:05:15.629Z,1014.39
2022-11-05T10:06:15.571Z,1014.40
2022-11-05T10:07:15.576Z,1014.41
2022-11-05T10:08:15.567Z,1014.37
2022-11-05T10:09:15.556Z,1014.39
2022-11-05T10:10:15.560Z,1014.42
2022-11-05T10:11:15.562Z,1014.39
2022-11-05T10:12:15.593Z,1014.36
2022-11-05T10:13:15.546Z,1014.38
2022-11-05T10:14:15.567Z,1014.39
2022-11-05T10:15:15.551Z,1014.36
2022-11-05T10:16:15.547Z,1014.37
2022-11-05T10:17:15.537Z,1014.37
2022-11-05T10:18:15.560Z,1014.40
2022-11-05T10:19:15.540Z,1014.40
2022-11-05T10:20:15.531Z,1014.38
2022-11-05T10:21:15.534Z,1014.38
2022-11-05T10:22:15.534Z,1014.36
2022-11-05T10:23:15.524Z,1014.41
2022-11-05T10:24:15.523Z,1014.41
2022-11-05T10:25:15.518Z,1014.42
2022-11-05T10:26:15.509Z,1014.45
2022-11-05T10:27:15.517Z,1014.47
2022-11-05T10:28:15.517Z,1014.42
2022-11-05T10:29:15.512Z,1014.40
2022-11-05T10:30:15.502Z,1014.39
2022-11-05T10:31:15.506Z,1014.43
2022-11-05T10:32:15.501Z,1014.42
2022-11-05T10:33:15.499Z,1014.44
2022-11-05T10:34:15.616Z,1014.48
2022-11-05T10:35:15.492Z,1014.47
2022-11-05T10:36:15.492Z,1014.48
2022-11-05T10:37:15.500Z,1014.51
2022-11-05T10:38:15.491Z,1014.54
2022-11-05T10:39:15.486Z,1014.53
2022-11-05T10:40:15.475Z,1014.56
2022-11-05T10:41:15.483Z,1014.55
2022-11-05T10:42:15.472Z,1014.52
2022-11-05T10:43:15.480Z,1014.53
2022-11-05T10:44:18.770Z,1014.49
2022-11-05T10:45:15.470Z,1014.50
2022-11-05T10:46:15.461Z,1014.54
2022-11-05T10:47:15.459Z,1014.50
2022-11-05T10:48:15.461Z,1014.57
2022-11-05T10:49:15.451Z,1014.55
2022-11-05T10:50:15.476Z,1014.51
2022-11-05T10:51:15.454Z,1014.51
2022-11-05T10:52:15.449Z,1014.51
2022-11-05T10:53:15.471Z,1014.51
2022-11-05T10:54:15.456Z,1014.57
2022-11-05T10:55:15.456Z,1014.56
2022-11-05T10:56:15.451Z,1014.57
2022-11-05T10:57:15.473Z,1014.51
2022-11-05T10:58:15.430Z,1014.54
2022-11-05T10:59:15.428Z,1014.56
2022-11-05T11:00:15.424Z,1014.56
2022-11-05T11:01:15.499Z,1014.56
2022-11-05T11:02:15.513Z,1014.58
2022-11-05T11:03:15.416Z,1014.57
2022-11-05T11:04:15.419Z,1014.56
2022-11-05T11:05:15.415Z,1014.56
2022-11-05T11:06:15.456Z,1014.59
2022-11-05T11:07:15.406Z,1014.55
2022-11-05T11:08:15.416Z,1014.52
2022-11-05T11:09:15.406Z,1014.54
2022-11-05T11:10:15.404Z,1014.57
2022-11-05T11:11:15.413Z,1014.53
2022-11-05T11:12:15.398Z,1014.50
2022-11-05T11:13:15.398Z,1014.51
2022-11-05T11:14:15.465Z,1014.54
2022-11-05T11:15:15.391Z,1014.54
2022-11-05T11:16:15.395Z,1014.50
2022-11-05T11:17:15.385Z,1014.48
2022-11-05T11:18:15.384Z,1014.44
2022-11-05T11:19:15.383Z,1014.41
2022-11-05T11:20:15.377Z,1014.42
2022-11-05T11:21:15.377Z,1014.39
2022-11-05T11:22:15.400Z,1014.38
2022-11-05T11:23:15.875Z,1014.36
2022-11-05T11:24:15.365Z,1014.39
2022-11-05T11:25:15.367Z,1014.39
2022-11-05T11:26:15.356Z,1014.37
2022-11-05T11:27:15.356Z,1014.37
2022-11-05T11:28:15.351Z,1014.35
2022-11-05T11:29:15.360Z,1014.34
2022-11-05T11:30:15.348Z,1014.31
2022-11-05T11:31:15.346Z,1014.34
2022-11-05T11:32:15.351Z,1014.32
2022-11-05T11:33:15.351Z,1014.35
2022-11-05T11:34:15.338Z,1014.39
2022-11-05T11:35:15.354Z,1014.38
2022-11-05T11:36:15.331Z,1014.38
2022-11-05T11:37:19.356Z,1014.40
2022-11-05T11:38:15.435Z,1014.40
2022-11-05T11:39:15.332Z,1014.39
2022-11-05T11:40:15.322Z,1014.41
2022-11-05T11:41:15.329Z,1014.42
2022-11-05T11:42:15.316Z,1014.41
2022-11-05T11:43:15.314Z,1014.41
2022-11-05T11:44:15.316Z,1014.42
2022-11-05T11:45:15.324Z,1014.43
2022-11-05T11:46:15.329Z,1014.40
2022-11-05T11:47:15.310Z,1014.41
2022-11-05T11:48:15.305Z,1014.40
2022-11-05T11:49:15.308Z,1014.38
2022-11-05T11:50:15.340Z,1014.40
2022-11-05T11:51:15.309Z,1014.36
2022-11-05T11:52:15.317Z,1014.35
2022-11-05T11:53:15.297Z,1014.39
2022-11-05T11:54:15.305Z,1014.39
2022-11-05T11:55:15.295Z,1014.37
2022-11-05T11:56:15.277Z,1014.40
2022-11-05T11:57:15.330Z,1014.40
2022-11-05T11:58:15.276Z,1014.38
2022-11-05T11:59:15.274Z,1014.38
2022-11-05T12:00:15.365Z,1014.38
2022-11-05T12:01:15.268Z,1014.35
2022-11-05T12:02:15.386Z,1014.34
2022-11-05T12:03:15.755Z,1014.32
2022-11-05T12:04:15.272Z,1014.32
2022-11-05T12:05:15.256Z,1014.38